Time;durP1;ratioP1;P1;durP2;ratioP2;P2;SDS_P1;SDS_P2;PMS_P1;PMS_P2;Temp;Humidity;BMP_temperature;BMP_pressure;BME280_temperature;BME280_humidity;BME280_pressure;Samples;Min_cycle;Max_cycle;Signal;HPM_P1;HPM_P2
2021/12/30 00:01:12;;;;;;;;;23.00;19.00;;;;;13.43;49.83;97992.75;4856202;28;104494;-83
2021/12/30 00:03:40;;;;;;;;;23.00;19.25;;;;;13.42;50.43;98007.41;4868127;28;104384;-84
2021/12/30 00:06:07;;;;;;;;;21.25;17.00;;;;;13.39;49.04;98009.50;4848696;28;102562;-84
2021/12/30 00:08:34;;;;;;;;;21.75;18.50;;;;;13.42;50.24;98018.25;4868925;28;102763;-83
2021/12/30 00:11:01;;;;;;;;;18.75;18.50;;;;;13.41;50.34;98012.00;4847695;28;102465;-84
2021/12/30 00:13:29;;;;;;;;;22.75;17.75;;;;;13.43;49.32;98022.63;4868721;28;104194;-84
2021/12/30 00:15:55;;;;;;;;;22.75;18.50;;;;;13.43;49.83;98019.91;4871062;28;103386;-84
2021/12/30 00:18:22;;;;;;;;;20.25;17.50;;;;;13.43;50.13;98019.91;4869036;28;103009;-84
2021/12/30 00:20:50;;;;;;;;;23.75;18.00;;;;;13.42;50.25;98029.13;4867957;28;102688;-83
2021/12/30 00:23:17;;;;;;;;;23.25;18.75;;;;;13.44;49.83;98029.72;4867749;28;104092;-84
2021/12/30 00:25:44;;;;;;;;;18.50;15.75;;;;;13.43;49.87;98025.31;4864952;28;104228;-84
2021/12/30 00:28:13;;;;;;;;;18.25;17.00;;;;;13.43;50.14;98028.88;4864586;28;102554;-84
2021/12/30 00:30:40;;;;;;;;;20.00;16.50;;;;;13.45;49.65;98031.38;4869527;28;102566;-84
2021/12/30 00:33:07;;;;;;;;;17.25;16.00;;;;;13.46;49.71;98022.16;4864143;28;104301;-84
2021/12/30 00:35:35;;;;;;;;;21.25;16.25;;;;;13.45;49.60;98023.22;4867384;28;102649;-83
2021/12/30 00:38:02;;;;;;;;;19.25;17.50;;;;;13.45;48.82;98025.94;4876094;28;102397;-84
2021/12/30 00:40:30;;;;;;;;;19.00;17.00;;;;;13.45;49.73;98028.66;4848791;28;102693;-83
2021/12/30 00:42:57;;;;;;;;;23.25;21.00;;;;;13.45;49.65;98031.38;4869731;28;104788;-84
2021/12/30 00:45:24;;;;;;;;;18.00;16.00;;;;;13.44;49.93;98035.13;4867019;28;103518;-84
2021/12/30 00:47:51;;;;;;;;;21.00;19.75;;;;;13.45;49.58;98044.94;4867122;28;102264;-84
2021/12/30 00:50:19;;;;;;;;;19.00;16.25;;;;;13.45;49.62;98055.81;4867154;28;102553;-84
2021/12/30 00:52:46;;;;;;;;;22.75;19.00;;;;;13.45;50.81;98050.38;4854501;28;103172;-83
2021/12/30 00:55:14;;;;;;;;;19.75;17.75;;;;;13.45;50.58;98048.50;4848052;28;102466;-84
2021/12/30 00:57:42;;;;;;;;;21.00;18.00;;;;;13.44;50.50;98046.00;4867519;28;102472;-83
2021/12/30 01:00:12;;;;;;;;;18.00;16.75;;;;;13.44;50.58;98044.13;4867559;28;102799;-84
2021/12/30 01:02:39;;;;;;;;;18.25;16.50;;;;;13.44;50.25;98052.25;4868544;28;104375;-84
2021/12/30 01:05:07;;;;;;;;;22.25;17.25;;;;;13.44;50.59;98046.84;4867224;28;102205;-84
2021/12/30 01:07:34;;;;;;;;;19.75;18.75;;;;;13.43;50.12;98025.31;4869729;28;102581;-84
2021/12/30 01:10:03;;;;;;;;;17.50;15.50;;;;;13.44;50.33;98033.25;4867078;28;104278;-84
2021/12/30 01:12:30;;;;;;;;;18.75;17.50;;;;;13.45;50.09;98028.66;4862122;28;104676;-84
2021/12/30 01:14:57;;;;;;;;;16.50;16.00;;;;;13.45;49.86;98034.09;4871149;28;104339;-84
2021/12/30 01:17:40;;;;;;;;;19.50;17.25;;;;;13.45;49.55;98034.91;4857882;28;103562;-84
2021/12/30 01:20:08;;;;;;;;;17.25;16.50;;;;;13.45;49.04;98040.34;4859218;28;103029;-84
2021/12/30 01:22:36;;;;;;;;;20.00;17.75;;;;;13.45;50.04;98050.38;4866861;28;104148;-84
2021/12/30 01:25:06;;;;;;;;;17.75;16.25;;;;;13.45;48.91;98053.94;4868004;28;104001;-84
2021/12/30 01:27:36;;;;;;;;;16.25;16.25;;;;;13.46;50.07;98052.03;4871062;28;102857;-84
2021/12/30 01:30:16;;;;;;;;;19.00;17.00;;;;;13.47;50.28;98050.97;4852131;28;102781;-84
2021/12/30 01:32:44;;;;;;;;;16.75;15.25;;;;;13.46;49.68;98052.03;4859322;28;104688;-84
2021/12/30 01:35:15;;;;;;;;;18.25;16.75;;;;;13.46;49.57;98052.88;4867049;28;102750;-84
2021/12/30 01:37:43;;;;;;;;;17.00;17.00;;;;;13.46;50.19;98057.47;4845157;28;103827;-84
2021/12/30 01:40:13;;;;;;;;;16.00;14.00;;;;;13.45;49.95;98053.09;4869380;28;102557;-84
2021/12/30 01:42:41;;;;;;;;;21.00;17.00;;;;;13.46;49.96;98049.31;4849116;28;104034;-84
2021/12/30 01:45:09;;;;;;;;;15.75;15.00;;;;;13.46;50.17;98052.03;4846571;28;103694;-84
2021/12/30 01:47:41;;;;;;;;;18.00;16.00;;;;;13.43;49.60;98053.31;4830516;28;103220;-84
2021/12/30 01:50:09;;;;;;;;;18.00;15.75;;;;;13.44;50.76;98060.41;4847273;28;103048;-84
2021/12/30 01:52:36;;;;;;;;;14.00;14.00;;;;;13.44;50.34;98056.88;4845208;28;104306;-84
2021/12/30 01:55:03;;;;;;;;;15.25;13.25;;;;;13.45;50.56;98050.38;4833483;28;103438;-84
2021/12/30 01:57:30;;;;;;;;;22.00;17.75;;;;;13.45;49.94;98047.66;4847155;28;104577;-84
2021/12/30 01:59:57;;;;;;;;;13.25;12.50;;;;;13.45;50.46;98050.38;4831753;28;102529;-84
2021/12/30 02:02:24;;;;;;;;;17.75;16.75;;;;;13.43;50.94;98042.47;4844705;28;104529;-84
2021/12/30 02:04:52;;;;;;;;;17.75;14.75;;;;;13.46;50.12;98043.91;4845064;28;102700;-84
2021/12/30 02:07:19;;;;;;;;;15.00;12.50;;;;;13.46;49.87;98041.19;4844426;28;102719;-83
2021/12/30 02:09:46;;;;;;;;;16.25;15.25;;;;;13.46;50.41;98043.91;4853293;28;103513;-84
2021/12/30 02:12:13;;;;;;;;;17.25;16.00;;;;;13.45;49.88;98040.34;4829001;28;104169;-84
2021/12/30 02:14:40;;;;;;;;;18.00;15.00;;;;;13.46;50.57;98057.47;4848048;28;103514;-84
2021/12/30 02:17:08;;;;;;;;;15.75;15.25;;;;;13.46;50.83;98057.47;4853960;28;102215;-84
2021/12/30 02:19:35;;;;;;;;;18.00;15.00;;;;;13.45;49.96;98050.38;4845205;28;102530;-84
2021/12/30 02:22:02;;;;;;;;;16.50;16.00;;;;;13.44;49.95;98048.72;4844308;28;104619;-83
2021/12/30 02:24:30;;;;;;;;;18.50;15.75;;;;;13.45;50.15;98055.81;4849359;28;102461;-84
2021/12/30 02:26:57;;;;;;;;;15.00;13.00;;;;;13.44;50.38;98065.00;4848934;28;102297;-84
2021/12/30 02:29:24;;;;;;;;;18.75;12.75;;;;;13.44;50.86;98062.28;4849229;28;103719;-84
2021/12/30 02:31:51;;;;;;;;;12.00;12.00;;;;;13.43;50.78;98057.91;4850108;28;103726;-83
2021/12/30 02:34:21;;;;;;;;;14.50;10.75;;;;;13.43;49.94;98063.34;4844088;28;102202;-84
2021/12/30 02:36:48;;;;;;;;;16.00;15.00;;;;;13.42;50.24;98056.28;4852749;28;103297;-83
2021/12/30 02:39:17;;;;;;;;;15.50;14.50;;;;;13.42;50.80;98057.09;4846935;28;103064;-84
2021/12/30 02:41:45;;;;;;;;;15.00;13.50;;;;;13.42;50.65;98062.50;4843612;28;104119;-84
2021/12/30 02:44:12;;;;;;;;;16.25;12.75;;;;;13.42;50.87;98056.28;4851490;28;105741;-84
2021/12/30 02:46:40;;;;;;;;;16.25;13.00;;;;;13.42;49.95;98048.94;4846656;28;102748;-84
2021/12/30 02:49:07;;;;;;;;;21.00;16.00;;;;;13.42;49.93;98057.09;4846541;28;103702;-84
2021/12/30 02:51:35;;;;;;;;;13.50;12.00;;;;;13.43;50.20;98053.31;4835011;28;104172;-84
2021/12/30 02:54:03;;;;;;;;;15.75;13.50;;;;;13.42;50.37;98061.72;4843774;28;103090;-84
2021/12/30 02:56:30;;;;;;;;;11.50;11.00;;;;;13.43;50.40;98063.34;4845502;28;102915;-84
2021/12/30 02:58:57;;;;;;;;;14.00;8.75;;;;;13.43;50.94;98049.78;4849741;28;104239;-84
2021/12/30 03:01:29;;;;;;;;;22.25;16.25;;;;;13.42;49.98;98061.72;4842389;28;105846;-84
2021/12/30 03:03:57;;;;;;;;;14.50;11.25;;;;;13.43;49.83;98058.75;4848265;28;103405;-84
2021/12/30 03:06:24;;;;;;;;;14.75;12.25;;;;;13.40;50.85;98065.50;4831422;28;102567;-84
2021/12/30 03:08:51;;;;;;;;;16.00;14.00;;;;;13.42;51.04;98062.50;4848736;28;104786;-83
2021/12/30 03:11:19;;;;;;;;;13.25;12.00;;;;;13.44;50.12;98071.28;4847474;28;104074;-84
2021/12/30 03:13:46;;;;;;;;;17.50;14.75;;;;;13.47;49.87;98069.97;4820979;28;103047;-84
2021/12/30 03:16:16;;;;;;;;;10.25;10.25;;;;;13.52;50.53;98072.81;4848570;28;102627;-84
2021/12/30 03:18:44;;;;;;;;;14.25;10.00;;;;;13.55;50.00;98069.66;4852465;28;102684;-84
2021/12/30 03:21:13;;;;;;;;;18.25;11.00;;;;;13.59;49.65;98070.84;4856235;28;103404;-84
2021/12/30 03:23:40;;;;;;;;;12.25;10.50;;;;;13.63;50.06;98080.19;4849842;28;102994;-83
2021/12/30 03:26:07;;;;;;;;;14.00;11.00;;;;;13.67;49.81;98084.09;4845188;28;102531;-84
2021/12/30 03:28:34;;;;;;;;;15.75;13.25;;;;;13.68;50.27;98083.03;4849154;28;102236;-84
2021/12/30 03:31:02;;;;;;;;;14.00;11.75;;;;;13.71;50.42;98082.56;4851171;28;103862;-83
2021/12/30 03:33:30;;;;;;;;;15.75;13.25;;;;;13.75;50.29;98100.03;4848651;28;103551;-83
2021/12/30 03:35:59;;;;;;;;;13.00;11.00;;;;;13.77;50.50;98097.94;4854895;28;103891;-84
2021/12/30 03:38:30;;;;;;;;;15.25;12.75;;;;;13.81;49.56;98110.00;4848817;28;102721;-83
2021/12/30 03:40:57;;;;;;;;;16.50;15.25;;;;;13.83;50.08;98107.84;4851352;28;104010;-84
2021/12/30 03:43:24;;;;;;;;;15.00;13.25;;;;;13.85;49.77;98097.59;4846731;28;104263;-84
2021/12/30 03:45:51;;;;;;;;;18.25;14.50;;;;;13.85;49.63;98101.13;4852067;28;103197;-84
2021/12/30 03:48:18;;;;;;;;;16.75;15.00;;;;;13.90;49.11;98097.72;4851651;28;103052;-84
2021/12/30 03:50:47;;;;;;;;;16.50;14.00;;;;;13.91;49.28;98110.25;4855689;28;103411;-84
2021/12/30 03:53:15;;;;;;;;;12.25;12.25;;;;;13.92;49.71;98113.75;4846559;28;103391;-84
2021/12/30 03:55:42;;;;;;;;;18.00;13.50;;;;;13.94;49.07;98114.38;4848375;28;102312;-83
2021/12/30 03:58:09;;;;;;;;;17.75;13.75;;;;;13.94;49.30;98109.78;4837779;28;102653;-83
2021/12/30 04:00:36;;;;;;;;;15.00;12.75;;;;;13.95;49.28;98111.44;4833803;28;104081;-83
2021/12/30 04:03:04;;;;;;;;;14.00;11.75;;;;;13.93;49.05;98107.28;4835472;28;105270;-83
2021/12/30 04:05:31;;;;;;;;;16.00;15.25;;;;;13.95;49.70;98113.31;4852355;28;102936;-83
2021/12/30 04:07:58;;;;;;;;;13.00;12.25;;;;;13.95;49.30;98116.88;4850697;28;102782;-84
2021/12/30 04:10:25;;;;;;;;;16.50;12.75;;;;;13.94;49.30;98112.50;4834382;28;103830;-84
2021/12/30 04:12:52;;;;;;;;;16.00;12.00;;;;;13.94;49.13;98115.22;4853566;28;102175;-84
2021/12/30 04:15:20;;;;;;;;;15.00;13.00;;;;;13.93;49.53;98121.69;4845335;28;102752;-84
2021/12/30 04:17:47;;;;;;;;;11.50;10.00;;;;;13.94;48.97;98125.25;4830658;28;102447;-84
2021/12/30 04:20:15;;;;;;;;;16.50;14.75;;;;;13.93;48.76;98129.03;4849788;28;104210;-84
2021/12/30 04:22:43;;;;;;;;;1.50;1.00;;;;;13.92;49.37;98133.63;4850404;28;102610;-84
2021/12/30 04:25:13;;;;;;;;;17.50;15.00;;;;;13.93;49.10;98146.16;4831008;28;102651;-83
2021/12/30 04:27:40;;;;;;;;;14.00;11.00;;;;;13.93;48.79;98146.16;4850350;28;102161;-83
2021/12/30 04:30:08;;;;;;;;;15.50;12.25;;;;;13.94;49.53;98152.44;4844855;28;104085;-83
2021/12/30 04:32:35;;;;;;;;;13.25;12.00;;;;;13.94;49.34;98155.97;4848643;28;103591;-83
2021/12/30 04:35:03;;;;;;;;;17.25;15.50;;;;;13.95;49.34;98165.78;4848511;28;102505;-83
2021/12/30 04:37:30;;;;;;;;;14.25;11.50;;;;;13.92;49.15;98166.25;4847154;28;102252;-83
2021/12/30 04:39:57;;;;;;;;;13.00;12.50;;;;;13.92;48.75;98160.81;4846390;28;104071;-83
2021/12/30 04:42:24;;;;;;;;;17.25;14.50;;;;;13.92;49.03;98168.13;4848052;28;102774;-84
2021/12/30 04:44:51;;;;;;;;;15.75;14.00;;;;;13.91;49.14;98175.47;4845286;28;104497;-83
2021/12/30 04:47:20;;;;;;;;;14.25;13.50;;;;;13.89;49.09;98166.72;4848089;28;102291;-83
2021/12/30 04:49:47;;;;;;;;;15.50;12.50;;;;;13.89;49.71;98176.75;4850841;28;104878;-83
2021/12/30 04:52:14;;;;;;;;;15.25;14.75;;;;;13.88;49.48;98173.19;4845278;28;102880;-84
2021/12/30 04:54:41;;;;;;;;;13.00;13.00;;;;;13.86;49.59;98167.19;4854100;28;102835;-83
2021/12/30 04:57:08;;;;;;;;;12.75;12.00;;;;;13.86;49.69;98150.88;4851283;28;103224;-84
2021/12/30 04:59:35;;;;;;;;;14.25;13.25;;;;;13.85;49.00;98160.09;4830427;28;105072;-83
2021/12/30 05:02:02;;;;;;;;;15.00;12.00;;;;;13.84;49.50;98153.81;4832052;28;102801;-83
2021/12/30 05:04:29;;;;;;;;;17.25;16.00;;;;;13.83;49.56;98152.16;4848953;28;102555;-83
2021/12/30 05:06:56;;;;;;;;;12.25;10.25;;;;;13.83;48.82;98140.47;4847656;28;102433;-84
2021/12/30 05:09:23;;;;;;;;;13.00;11.00;;;;;13.84;48.94;98142.13;4849132;28;104074;-84
2021/12/30 05:11:51;;;;;;;;;15.50;12.75;;;;;13.84;48.58;98136.69;4851756;28;102613;-83
2021/12/30 05:14:18;;;;;;;;;12.50;12.25;;;;;13.84;48.61;98136.69;4848120;28;102634;-83
2021/12/30 05:16:45;;;;;;;;;12.75;12.50;;;;;13.83;49.42;98135.03;4852497;28;103380;-83
2021/12/30 05:19:12;;;;;;;;;16.50;13.50;;;;;13.82;49.27;98133.38;4850374;28;104272;-84
2021/12/30 05:21:39;;;;;;;;;16.00;12.75;;;;;13.81;49.35;98135.28;4847072;28;102507;-83
2021/12/30 05:24:06;;;;;;;;;15.25;15.25;;;;;13.81;48.95;98146.16;4845935;28;102449;-83
2021/12/30 05:26:33;;;;;;;;;13.00;12.25;;;;;13.80;48.81;98159.97;4848355;28;103967;-84
2021/12/30 05:29:00;;;;;;;;;15.50;13.00;;;;;13.79;49.35;98166.44;4844633;28;104045;-83
2021/12/30 05:31:27;;;;;;;;;16.25;14.00;;;;;13.79;49.15;98180.03;4850912;28;103511;-83
2021/12/30 05:33:55;;;;;;;;;14.75;12.00;;;;;13.78;48.81;98181.09;4849824;28;102239;-83
2021/12/30 05:36:22;;;;;;;;;17.25;12.50;;;;;13.76;48.76;98169.63;4829623;28;103335;-83
2021/12/30 05:38:49;;;;;;;;;17.25;13.25;;;;;13.75;49.05;98179.66;4847655;28;104231;-83
2021/12/30 05:41:16;;;;;;;;;18.00;13.50;;;;;13.74;49.69;98164.41;4841356;28;102587;-83
2021/12/30 05:43:43;;;;;;;;;11.75;11.50;;;;;13.74;49.06;98171.75;4849299;28;102917;-83
2021/12/30 05:46:10;;;;;;;;;13.25;11.50;;;;;13.74;48.65;98174.47;4851533;28;102450;-84
2021/12/30 05:48:37;;;;;;;;;14.50;13.25;;;;;13.73;49.45;98175.53;4844927;28;103710;-84
2021/12/30 05:51:04;;;;;;;;;16.75;13.75;;;;;13.71;48.90;98186.63;4847365;28;102786;-83
2021/12/30 05:53:31;;;;;;;;;15.50;13.00;;;;;13.72;48.89;98184.75;4846052;28;102194;-83
2021/12/30 05:55:58;;;;;;;;;15.00;12.75;;;;;13.71;49.40;98202.09;4844630;28;103454;-84
2021/12/30 05:58:25;;;;;;;;;21.00;17.75;;;;;13.71;48.99;98196.66;4846220;28;103386;-83
2021/12/30 06:00:52;;;;;;;;;12.00;11.25;;;;;13.70;48.40;98200.44;4853080;28;104711;-84
2021/12/30 06:03:20;;;;;;;;;19.75;16.50;;;;;13.68;48.81;98197.97;4847571;28;102993;-84
2021/12/30 06:05:48;;;;;;;;;11.75;11.75;;;;;13.67;48.80;98198.19;4844710;28;108005;-83
2021/12/30 06:08:15;;;;;;;;;24.00;14.00;;;;;13.67;48.75;98200.91;4852649;28;104770;-84
2021/12/30 06:10:43;;;;;;;;;16.00;13.50;;;;;13.65;49.33;98195.69;4848332;28;102673;-84
2021/12/30 06:13:11;;;;;;;;;15.50;12.75;;;;;13.66;48.80;98207.41;4845418;28;102381;-84
2021/12/30 06:15:38;;;;;;;;;21.25;17.50;;;;;13.64;48.74;98204.09;4844914;28;102269;-84
2021/12/30 06:18:05;;;;;;;;;18.75;16.50;;;;;13.63;48.45;98213.31;4847886;28;104285;-84
2021/12/30 06:20:32;;;;;;;;;17.50;14.50;;;;;13.63;49.31;98210.59;4846850;28;103850;-84
2021/12/30 06:22:59;;;;;;;;;17.75;11.25;;;;;13.63;48.13;98221.44;4852224;28;102711;-84
2021/12/30 06:25:26;;;;;;;;;16.50;15.25;;;;;13.62;48.69;98219.78;4845264;28;104610;-83
2021/12/30 06:27:55;;;;;;;;;17.00;13.75;;;;;13.62;48.28;98219.78;4846631;28;104101;-83
2021/12/30 06:30:23;;;;;;;;;18.75;16.75;;;;;13.62;49.29;98217.06;4846693;28;102500;-83
2021/12/30 06:32:50;;;;;;;;;15.00;14.25;;;;;13.60;48.72;98219.19;4847796;28;102469;-83
2021/12/30 06:35:17;;;;;;;;;18.50;16.00;;;;;13.59;49.26;98214.81;4848054;28;102681;-83
2021/12/30 06:37:44;;;;;;;;;16.75;15.00;;;;;13.58;49.01;98218.59;4850831;28;103603;-84
2021/12/30 06:40:12;;;;;;;;;15.50;13.25;;;;;13.58;48.61;98221.31;4851341;28;102758;-84
2021/12/30 06:42:41;;;;;;;;;16.00;15.00;;;;;13.59;48.81;98233.84;4823915;28;103701;-84
2021/12/30 06:45:08;;;;;;;;;17.75;14.75;;;;;13.58;48.41;98232.16;4861745;28;102227;-83
2021/12/30 06:47:41;;;;;;;;;16.00;14.75;;;;;13.56;48.44;98228.84;4852235;28;104094;-84
2021/12/30 06:50:11;;;;;;;;;16.25;15.25;;;;;13.57;48.77;98223.19;4855151;28;102551;-83
2021/12/30 06:52:38;;;;;;;;;21.75;16.00;;;;;13.55;49.30;98224.50;4857882;28;102709;-83
2021/12/30 06:55:06;;;;;;;;;17.50;15.00;;;;;13.55;49.23;98235.34;4854225;28;103709;-84
2021/12/30 06:57:34;;;;;;;;;18.50;16.00;;;;;13.55;48.43;98238.06;4839775;28;104081;-83
2021/12/30 07:00:03;;;;;;;;;18.00;15.75;;;;;13.53;48.92;98221.16;4857090;28;102340;-84
2021/12/30 07:02:30;;;;;;;;;19.00;11.50;;;;;13.52;48.67;98222.22;4846377;28;102678;-83
2021/12/30 07:04:57;;;;;;;;;14.50;12.50;;;;;13.52;48.92;98219.50;4842336;28;102534;-85
2021/12/30 07:07:24;;;;;;;;;16.75;15.25;;;;;13.52;48.87;98211.34;4852829;28;104116;-84
2021/12/30 07:09:51;;;;;;;;;15.50;14.00;;;;;13.50;48.61;98222.47;4850160;28;103132;-84
2021/12/30 07:12:18;;;;;;;;;15.75;14.25;;;;;13.49;49.15;98223.50;4853606;28;103108;-84
2021/12/30 07:14:46;;;;;;;;;17.75;17.25;;;;;13.50;49.32;98222.47;4856501;28;104264;-83
2021/12/30 07:17:13;;;;;;;;;16.75;15.25;;;;;13.49;48.91;98223.50;4836474;28;104080;-84
2021/12/30 07:19:40;;;;;;;;;18.00;15.00;;;;;13.48;49.01;98226.44;4855229;28;102305;-84
2021/12/30 07:22:07;;;;;;;;;13.75;11.00;;;;;13.49;49.04;98228.13;4855461;28;102796;-83
2021/12/30 07:24:56;;;;;;;;;16.50;13.75;;;;;13.48;49.21;98218.28;4853938;28;102684;-83
2021/12/30 07:27:23;;;;;;;;;16.75;15.25;;;;;13.47;49.19;98241.06;4848970;28;104292;-85
2021/12/30 07:29:50;;;;;;;;;17.25;16.00;;;;;13.47;49.48;98238.34;4844839;28;103530;-85
2021/12/30 07:32:17;;;;;;;;;16.75;14.75;;;;;13.47;48.88;98247.34;4849590;28;102783;-85
2021/12/30 07:34:45;;;;;;;;;17.25;15.00;;;;;13.47;48.93;98250.06;4853639;28;105329;-84
2021/12/30 07:37:14;;;;;;;;;16.00;13.75;;;;;13.47;49.27;98254.66;4848152;28;103965;-85
2021/12/30 07:39:41;;;;;;;;;16.25;12.75;;;;;13.45;49.30;98257.63;4856699;28;102501;-85
2021/12/30 07:42:09;;;;;;;;;9.00;5.75;;;;;13.45;49.29;98262.22;4852178;28;102743;-84
2021/12/30 07:44:36;;;;;;;;;14.75;11.75;;;;;13.44;49.73;98255.94;4853276;28;102604;-84
2021/12/30 07:47:15;;;;;;;;;15.50;14.00;;;;;13.45;49.70;98254.91;4854669;28;104174;-84
2021/12/30 07:49:42;;;;;;;;;18.75;15.00;;;;;13.44;49.35;98255.13;4848122;28;102208;-84
2021/12/30 07:52:09;;;;;;;;;10.75;10.75;;;;;13.45;49.38;98256.78;4853255;28;109132;-84
2021/12/30 07:54:36;;;;;;;;;18.00;15.75;;;;;13.44;49.52;98264.09;4859148;28;102298;-84
2021/12/30 07:57:03;;;;;;;;;14.00;12.25;;;;;13.44;49.69;98271.41;4852953;28;103828;-84
2021/12/30 07:59:30;;;;;;;;;15.50;12.75;;;;;13.44;49.35;98263.28;4859528;28;102519;-84
2021/12/30 08:01:59;;;;;;;;;12.50;12.00;;;;;13.42;49.25;98258.06;4856225;28;102636;-83
2021/12/30 08:04:27;;;;;;;;;17.25;15.00;;;;;13.42;49.39;98258.06;4855631;28;104252;-84
2021/12/30 08:06:54;;;;;;;;;16.75;13.00;;;;;13.40;49.89;98266.44;4852740;28;104199;-82
2021/12/30 08:09:21;;;;;;;;;12.00;12.00;;;;;13.42;48.85;98268.91;4850437;28;102385;-85
2021/12/30 08:11:49;;;;;;;;;16.75;15.75;;;;;13.40;48.74;98258.31;4852609;28;102633;-84
2021/12/30 08:14:17;;;;;;;;;16.75;14.25;;;;;13.40;48.93;98258.31;4848819;28;102307;-84
2021/12/30 08:16:45;;;;;;;;;17.75;14.75;;;;;13.40;49.46;98261.00;4828824;28;104286;-85
2021/12/30 08:19:12;;;;;;;;;14.75;12.50;;;;;13.40;48.78;98265.63;4853334;28;102797;-84
2021/12/30 08:21:42;;;;;;;;;14.75;14.75;;;;;13.38;49.16;98260.41;4829339;28;102814;-84
2021/12/30 08:24:09;;;;;;;;;15.50;12.25;;;;;13.38;49.48;98265.84;4854981;28;102422;-84
2021/12/30 08:26:37;;;;;;;;;16.50;15.75;;;;;13.37;48.67;98266.88;4855316;28;104143;-85
2021/12/30 08:29:04;;;;;;;;;14.25;13.25;;;;;13.38;49.05;98271.25;4851338;28;102582;-84
2021/12/30 08:31:33;;;;;;;;;16.75;13.25;;;;;13.37;48.48;98269.59;4855180;28;102353;-84
2021/12/30 08:34:01;;;;;;;;;16.25;15.00;;;;;13.36;48.68;98272.56;4857118;28;103057;-84
2021/12/30 08:36:28;;;;;;;;;16.50;14.25;;;;;13.35;49.30;98271.72;4852283;28;104173;-84
2021/12/30 08:38:55;;;;;;;;;17.00;15.00;;;;;13.35;49.14;98276.31;4859176;28;102626;-83
2021/12/30 08:41:22;;;;;;;;;18.25;16.25;;;;;13.33;48.52;98276.53;4857531;28;103805;-84
2021/12/30 08:43:49;;;;;;;;;16.75;14.75;;;;;13.31;49.09;98273.25;4840203;28;102709;-84
2021/12/30 08:46:16;;;;;;;;;14.25;12.25;;;;;13.31;48.77;98275.97;4850095;28;104273;-84
2021/12/30 08:48:44;;;;;;;;;15.50;13.50;;;;;13.30;49.13;98277.00;4839110;28;102202;-84
2021/12/30 08:51:11;;;;;;;;;19.25;13.25;;;;;13.28;48.52;98279.09;4836417;28;102122;-83
2021/12/30 08:53:41;;;;;;;;;16.50;12.00;;;;;13.29;48.24;98280.78;4851318;28;102561;-84
2021/12/30 08:56:12;;;;;;;;;16.75;13.00;;;;;13.26;49.01;98281.22;4858463;28;104206;-84
2021/12/30 08:58:39;;;;;;;;;16.75;14.50;;;;;13.28;48.33;98284.53;4848623;28;102543;-85
2021/12/30 09:01:06;;;;;;;;;14.00;12.75;;;;;13.28;48.76;98295.41;4857722;28;102499;-84
2021/12/30 09:03:33;;;;;;;;;15.75;14.50;;;;;13.28;47.82;98305.44;4853359;28;102418;-84
2021/12/30 09:06:00;;;;;;;;;16.25;12.00;;;;;13.28;47.66;98306.25;4851409;28;103733;-84
2021/12/30 09:08:27;;;;;;;;;18.50;13.75;;;;;13.28;48.28;98306.25;4859059;28;103855;-85
2021/12/30 09:10:54;;;;;;;;;17.00;14.25;;;;;13.27;48.33;98310.06;4852464;28;102407;-84
2021/12/30 09:13:21;;;;;;;;;18.00;14.50;;;;;13.25;48.12;98309.44;4851039;28;102606;-84
2021/12/30 09:15:48;;;;;;;;;15.75;12.50;;;;;13.22;48.22;98309.91;4854038;28;103364;-84
2021/12/30 09:18:15;;;;;;;;;15.50;13.00;;;;;13.23;48.59;98303.41;4853022;28;102495;-84
2021/12/30 09:20:43;;;;;;;;;17.75;14.75;;;;;13.24;48.02;98302.34;4852407;28;102536;-83
2021/12/30 09:23:11;;;;;;;;;16.00;14.75;;;;;13.22;47.66;98299.03;4858140;28;102580;-84
2021/12/30 09:25:39;;;;;;;;;17.00;15.25;;;;;13.22;48.11;98301.75;4850266;28;104264;-83
2021/12/30 09:28:07;;;;;;;;;14.50;12.00;;;;;13.21;48.16;98300.06;4849091;28;103507;-84
2021/12/30 09:30:34;;;;;;;;;13.25;10.75;;;;;13.20;48.15;98295.69;4850335;28;103022;-83
2021/12/30 09:33:02;;;;;;;;;11.00;10.25;;;;;13.18;47.53;98281.53;4853527;28;102849;-83
2021/12/30 09:35:29;;;;;;;;;16.25;15.25;;;;;13.19;48.26;98285.88;4849699;28;104094;-83
2021/12/30 09:37:56;;;;;;;;;18.75;14.75;;;;;13.18;48.29;98281.53;4859065;28;102340;-83
2021/12/30 09:40:24;;;;;;;;;17.75;15.00;;;;;13.17;47.61;98279.03;4847540;28;102546;-83
2021/12/30 09:42:54;;;;;;;;;15.50;14.00;;;;;13.16;48.55;98286.34;4855431;28;102690;-83
2021/12/30 09:45:26;;;;;;;;;11.00;8.00;;;;;13.15;47.79;98284.69;4849666;28;104238;-83
2021/12/30 09:47:54;;;;;;;;;13.50;11.75;;;;;13.12;48.18;98279.72;4853733;28;102511;-83
2021/12/30 09:50:33;;;;;;;;;11.25;10.50;;;;;13.13;48.05;98269.69;4858955;28;102299;-83
2021/12/30 09:53:00;;;;;;;;;13.00;10.00;;;;;13.14;47.46;98271.34;4852377;28;102486;-83
2021/12/30 09:55:29;;;;;;;;;19.75;11.50;;;;;13.14;47.26;98277.63;4853274;28;104295;-83
2021/12/30 09:57:57;;;;;;;;;12.00;11.00;;;;;13.14;47.51;98282.22;4859943;28;102383;-83
2021/12/30 10:00:24;;;;;;;;;14.50;13.00;;;;;13.13;47.18;98281.38;4838608;28;102222;-83
2021/12/30 10:02:51;;;;;;;;;16.00;12.75;;;;;13.13;47.32;98273.22;4853881;28;102289;-83
2021/12/30 10:05:20;;;;;;;;;10.50;9.00;;;;;13.12;47.79;98282.44;4855840;28;104324;-84
2021/12/30 10:07:47;;;;;;;;;15.25;12.00;;;;;13.11;47.76;98285.34;4855569;28;102462;-83
2021/12/30 10:10:31;;;;;;;;;11.00;10.00;;;;;13.11;47.92;98285.34;4853934;28;102141;-83
2021/12/30 10:13:00;;;;;;;;;10.25;10.25;;;;;13.10;47.59;98278.25;4858284;28;103419;-83
2021/12/30 10:15:30;;;;;;;;;11.50;10.00;;;;;13.10;47.02;98286.41;4854390;28;104117;-83
2021/12/30 10:17:58;;;;;;;;;12.25;10.50;;;;;13.09;47.99;98296.44;4832468;28;102293;-83
2021/12/30 10:20:29;;;;;;;;;14.75;11.25;;;;;13.09;47.45;98293.72;4854835;28;102541;-83
2021/12/30 10:23:07;;;;;;;;;11.00;10.25;;;;;13.08;47.21;98299.34;4856929;28;102564;-83
2021/12/30 10:25:39;;;;;;;;;10.00;9.25;;;;;13.06;48.18;98296.84;4850176;28;104259;-82
2021/12/30 10:28:19;;;;;;;;;11.50;9.50;;;;;13.05;48.01;98295.22;4858169;28;102440;-82
2021/12/30 10:30:46;;;;;;;;;8.50;8.50;;;;;13.08;48.83;98302.06;4858701;28;102434;-82
2021/12/30 10:33:22;;;;;;;;;15.50;10.25;;;;;13.08;48.32;98300.19;4851999;28;102627;-82
2021/12/30 10:35:50;;;;;;;;;12.00;11.00;;;;;13.10;47.76;98294.53;4847801;28;103989;-83
2021/12/30 10:38:17;;;;;;;;;11.50;10.00;;;;;13.10;48.58;98287.22;4854405;28;103111;-83
2021/12/30 10:40:46;;;;;;;;;10.00;9.50;;;;;13.12;47.98;98282.44;4854521;28;104050;-83
2021/12/30 10:43:23;;;;;;;;;16.25;12.50;;;;;13.13;47.94;98297.66;4853582;28;102251;-83
2021/12/30 10:46:26;;;;;;;;;9.25;9.25;;;;;13.14;47.76;98295.78;4853660;28;104226;-83
2021/12/30 10:49:07;;;;;;;;;10.50;10.00;;;;;13.13;48.16;98294.13;4833734;28;102614;-84
2021/12/30 10:51:34;;;;;;;;;11.00;10.25;;;;;13.11;48.36;98291.63;4834748;28;103117;-83
2021/12/30 10:54:25;;;;;;;;;12.00;12.00;;;;;13.12;47.52;98300.59;4859195;28;102523;-84
2021/12/30 10:57:05;;;;;;;;;14.00;11.00;;;;;13.12;47.33;98300.59;4841181;28;103961;-84
2021/12/30 10:59:33;;;;;;;;;11.25;9.75;;;;;13.12;47.52;98295.16;4849902;28;102828;-83
2021/12/30 11:02:09;;;;;;;;;11.50;10.75;;;;;13.10;48.31;98292.66;4855466;28;102567;-83
2021/12/30 11:04:43;;;;;;;;;10.25;9.00;;;;;13.10;47.62;98286.41;4836192;28;103800;-83
2021/12/30 11:07:16;;;;;;;;;10.50;9.25;;;;;13.09;48.22;98291.00;4852917;28;105664;-84
2021/12/30 11:09:47;;;;;;;;;13.25;11.25;;;;;13.08;47.77;98296.63;4854214;28;102484;-84
2021/12/30 11:12:14;;;;;;;;;12.50;11.50;;;;;13.07;47.04;98303.94;4850380;28;102488;-83
2021/12/30 11:14:41;;;;;;;;;10.75;10.00;;;;;13.06;48.01;98301.47;4857395;28;102487;-83